sensor_id;sensor_type;location;lat;lon;timestamp;pressure;altitude;pressure_sealevel;temperature;humidity
73624;BME280;61921;53.226;-1.296;2022-07-24T00:01:57;100215.67;;;19.75;71.74
73624;BME280;61921;53.226;-1.296;2022-07-24T00:04:23;100219.07;;;19.69;71.90
73624;BME280;61921;53.226;-1.296;2022-07-24T00:06:48;100218.88;;;19.70;71.90
73624;BME280;61921;53.226;-1.296;2022-07-24T00:09:13;100212.64;;;19.76;71.69
73624;BME280;61921;53.226;-1.296;2022-07-24T00:11:39;100213.70;;;19.80;71.50
73624;BME280;61921;53.226;-1.296;2022-07-24T00:14:04;100207.87;;;19.86;71.12
73624;BME280;61921;53.226;-1.296;2022-07-24T00:16:30;100205.67;;;19.84;71.30
73624;BME280;61921;53.226;-1.296;2022-07-24T00:18:55;100205.68;;;19.83;71.29
73624;BME280;61921;53.226;-1.296;2022-07-24T00:21:20;100215.81;;;19.87;71.20
73624;BME280;61921;53.226;-1.296;2022-07-24T00:23:46;100210.76;;;19.83;71.17
73624;BME280;61921;53.226;-1.296;2022-07-24T00:26:11;100214.20;;;19.77;71.52
73624;BME280;61921;53.226;-1.296;2022-07-24T00:28:36;100204.96;;;19.83;71.33
73624;BME280;61921;53.226;-1.296;2022-07-24T00:31:01;100195.00;;;19.74;71.48
73624;BME280;61921;53.226;-1.296;2022-07-24T00:33:26;100191.92;;;19.64;71.84
73624;BME280;61921;53.226;-1.296;2022-07-24T00:35:52;100193.03;;;19.71;71.59
73624;BME280;61921;53.226;-1.296;2022-07-24T00:38:17;100187.20;;;19.57;71.82
73624;BME280;61921;53.226;-1.296;2022-07-24T00:40:42;100191.69;;;19.58;71.87
73624;BME280;61921;53.226;-1.296;2022-07-24T00:43:07;100191.37;;;19.48;72.00
73624;BME280;61921;53.226;-1.296;2022-07-24T00:45:33;100193.15;;;19.47;72.03
73624;BME280;61921;53.226;-1.296;2022-07-24T00:47:57;100186.25;;;19.53;71.76
73624;BME280;61921;53.226;-1.296;2022-07-24T00:50:23;100172.99;;;19.47;71.71
73624;BME280;61921;53.226;-1.296;2022-07-24T00:52:49;100171.85;;;19.39;72.00
73624;BME280;61921;53.226;-1.296;2022-07-24T00:55:13;100177.98;;;19.33;72.30
73624;BME280;61921;53.226;-1.296;2022-07-24T00:57:39;100180.08;;;19.39;72.14
73624;BME280;61921;53.226;-1.296;2022-07-24T01:00:06;100176.03;;;19.36;72.21
73624;BME280;61921;53.226;-1.296;2022-07-24T01:02:30;100162.19;;;19.33;72.29
73624;BME280;61921;53.226;-1.296;2022-07-24T01:04:55;100160.34;;;19.31;72.28
73624;BME280;61921;53.226;-1.296;2022-07-24T01:07:20;100158.24;;;19.27;72.46
73624;BME280;61921;53.226;-1.296;2022-07-24T01:09:46;100159.14;;;19.22;72.51
73624;BME280;61921;53.226;-1.296;2022-07-24T01:12:12;100155.03;;;19.24;72.34
73624;BME280;61921;53.226;-1.296;2022-07-24T01:14:36;100151.88;;;19.28;72.27
73624;BME280;61921;53.226;-1.296;2022-07-24T01:17:02;100161.86;;;19.29;72.30
73624;BME280;61921;53.226;-1.296;2022-07-24T01:19:27;100156.69;;;19.23;72.36
73624;BME280;61921;53.226;-1.296;2022-07-24T01:21:53;100155.35;;;19.29;72.23
73624;BME280;61921;53.226;-1.296;2022-07-24T01:24:18;100148.04;;;19.21;72.33
73624;BME280;61921;53.226;-1.296;2022-07-24T01:26:43;100153.23;;;19.20;72.46
73624;BME280;61921;53.226;-1.296;2022-07-24T01:29:08;100162.05;;;19.25;72.37
73624;BME280;61921;53.226;-1.296;2022-07-24T01:31:33;100160.40;;;19.17;72.66
73624;BME280;61921;53.226;-1.296;2022-07-24T01:33:59;100151.68;;;19.24;72.49
73624;BME280;61921;53.226;-1.296;2022-07-24T01:36:25;100154.62;;;19.31;72.32
73624;BME280;61921;53.226;-1.296;2022-07-24T01:38:50;100143.55;;;19.31;72.27
73624;BME280;61921;53.226;-1.296;2022-07-24T01:41:15;100136.99;;;19.35;72.10
73624;BME280;61921;53.226;-1.296;2022-07-24T01:43:40;100136.36;;;19.34;72.30
73624;BME280;61921;53.226;-1.296;2022-07-24T01:46:06;100139.44;;;19.33;72.23
73624;BME280;61921;53.226;-1.296;2022-07-24T01:48:31;100123.74;;;19.29;72.47
73624;BME280;61921;53.226;-1.296;2022-07-24T01:50:56;100122.41;;;19.35;72.19
73624;BME280;61921;53.226;-1.296;2022-07-24T01:53:22;100126.47;;;19.33;72.41
73624;BME280;61921;53.226;-1.296;2022-07-24T01:55:50;100122.57;;;19.29;72.48
73624;BME280;61921;53.226;-1.296;2022-07-24T01:58:12;100121.69;;;19.36;72.28
73624;BME280;61921;53.226;-1.296;2022-07-24T02:00:38;100126.07;;;19.36;72.31
73624;BME280;61921;53.226;-1.296;2022-07-24T02:03:03;100121.82;;;19.41;72.16
73624;BME280;61921;53.226;-1.296;2022-07-24T02:05:28;100126.15;;;19.38;72.20
73624;BME280;61921;53.226;-1.296;2022-07-24T02:07:55;100130.18;;;19.40;72.13
73624;BME280;61921;53.226;-1.296;2022-07-24T02:10:18;100129.69;;;19.48;71.99
73624;BME280;61921;53.226;-1.296;2022-07-24T02:12:44;100135.29;;;19.47;71.83
73624;BME280;61921;53.226;-1.296;2022-07-24T02:15:10;100133.85;;;19.42;72.17
73624;BME280;61921;53.226;-1.296;2022-07-24T02:17:35;100137.19;;;19.55;71.69
73624;BME280;61921;53.226;-1.296;2022-07-24T02:20:00;100138.82;;;19.59;71.75
73624;BME280;61921;53.226;-1.296;2022-07-24T02:22:25;100147.05;;;19.61;72.24
73624;BME280;61921;53.226;-1.296;2022-07-24T02:24:50;100150.59;;;19.57;73.40
73624;BME280;61921;53.226;-1.296;2022-07-24T02:27:16;100152.82;;;19.50;74.59
73624;BME280;61921;53.226;-1.296;2022-07-24T02:29:41;100158.38;;;19.33;75.17
73624;BME280;61921;53.226;-1.296;2022-07-24T02:32:07;100155.59;;;19.11;76.74
73624;BME280;61921;53.226;-1.296;2022-07-24T02:34:33;100155.21;;;19.01;78.00
73624;BME280;61921;53.226;-1.296;2022-07-24T02:36:57;100146.95;;;18.99;77.65
73624;BME280;61921;53.226;-1.296;2022-07-24T02:39:22;100150.77;;;18.83;78.06
73624;BME280;61921;53.226;-1.296;2022-07-24T02:41:48;100145.10;;;18.83;78.87
73624;BME280;61921;53.226;-1.296;2022-07-24T02:44:13;100141.51;;;18.73;79.51
73624;BME280;61921;53.226;-1.296;2022-07-24T02:46:38;100137.37;;;18.75;79.34
73624;BME280;61921;53.226;-1.296;2022-07-24T02:49:04;100133.62;;;18.73;79.63
73624;BME280;61921;53.226;-1.296;2022-07-24T02:51:29;100123.38;;;18.71;79.66
73624;BME280;61921;53.226;-1.296;2022-07-24T02:53:55;100128.76;;;18.59;80.12
73624;BME280;61921;53.226;-1.296;2022-07-24T02:56:20;100134.26;;;18.59;80.49
73624;BME280;61921;53.226;-1.296;2022-07-24T02:58:45;100140.81;;;18.56;81.29
73624;BME280;61921;53.226;-1.296;2022-07-24T03:01:11;100139.29;;;18.49;81.12
73624;BME280;61921;53.226;-1.296;2022-07-24T03:03:36;100137.20;;;18.37;81.78
73624;BME280;61921;53.226;-1.296;2022-07-24T03:06:02;100138.80;;;18.42;81.75
73624;BME280;61921;53.226;-1.296;2022-07-24T03:08:28;100142.79;;;18.32;82.46
73624;BME280;61921;53.226;-1.296;2022-07-24T03:10:53;100144.28;;;18.34;82.56
73624;BME280;61921;53.226;-1.296;2022-07-24T03:13:18;100132.81;;;18.32;82.87
73624;BME280;61921;53.226;-1.296;2022-07-24T03:15:43;100132.31;;;18.29;83.02
73624;BME280;61921;53.226;-1.296;2022-07-24T03:18:09;100137.47;;;18.27;83.11
73624;BME280;61921;53.226;-1.296;2022-07-24T03:20:35;100136.83;;;18.29;83.23
73624;BME280;61921;53.226;-1.296;2022-07-24T03:23:00;100143.05;;;18.16;83.35
73624;BME280;61921;53.226;-1.296;2022-07-24T03:25:26;100131.17;;;18.10;83.87
73624;BME280;61921;53.226;-1.296;2022-07-24T03:27:51;100138.06;;;18.12;84.08
73624;BME280;61921;53.226;-1.296;2022-07-24T03:30:18;100136.94;;;18.14;84.02
73624;BME280;61921;53.226;-1.296;2022-07-24T03:32:42;100137.38;;;18.18;83.92
73624;BME280;61921;53.226;-1.296;2022-07-24T03:35:08;100137.40;;;18.13;83.46
73624;BME280;61921;53.226;-1.296;2022-07-24T03:37:32;100128.51;;;18.26;83.73
73624;BME280;61921;53.226;-1.296;2022-07-24T03:39:58;100133.03;;;18.15;84.15
73624;BME280;61921;53.226;-1.296;2022-07-24T03:42:24;100125.48;;;18.05;84.03
73624;BME280;61921;53.226;-1.296;2022-07-24T03:44:50;100128.06;;;18.18;84.04
73624;BME280;61921;53.226;-1.296;2022-07-24T03:47:15;100131.99;;;18.20;83.86
73624;BME280;61921;53.226;-1.296;2022-07-24T03:49:40;100121.40;;;18.21;84.13
73624;BME280;61921;53.226;-1.296;2022-07-24T03:52:06;100114.06;;;18.22;83.86
73624;BME280;61921;53.226;-1.296;2022-07-24T03:54:32;100107.52;;;18.22;83.51
73624;BME280;61921;53.226;-1.296;2022-07-24T03:56:57;100105.80;;;18.21;84.02
73624;BME280;61921;53.226;-1.296;2022-07-24T03:59:22;100107.18;;;18.26;84.22
73624;BME280;61921;53.226;-1.296;2022-07-24T04:01:48;100106.82;;;18.27;83.79
73624;BME280;61921;53.226;-1.296;2022-07-24T04:04:13;100098.01;;;18.26;83.67
73624;BME280;61921;53.226;-1.296;2022-07-24T04:06:38;100097.56;;;18.26;84.12
73624;BME280;61921;53.226;-1.296;2022-07-24T04:09:04;100108.40;;;18.26;84.08
73624;BME280;61921;53.226;-1.296;2022-07-24T04:11:29;100113.32;;;18.22;84.45
73624;BME280;61921;53.226;-1.296;2022-07-24T04:13:54;100108.34;;;18.24;83.76
73624;BME280;61921;53.226;-1.296;2022-07-24T04:16:19;100118.21;;;18.41;84.12
73624;BME280;61921;53.226;-1.296;2022-07-24T04:18:44;100113.21;;;18.28;83.82
73624;BME280;61921;53.226;-1.296;2022-07-24T04:21:09;100126.69;;;18.31;83.64
73624;BME280;61921;53.226;-1.296;2022-07-24T04:23:35;100133.32;;;18.30;83.78
73624;BME280;61921;53.226;-1.296;2022-07-24T04:26:00;100128.12;;;18.35;83.56
73624;BME280;61921;53.226;-1.296;2022-07-24T04:28:25;100125.78;;;18.38;83.43
73624;BME280;61921;53.226;-1.296;2022-07-24T04:30:51;100127.82;;;18.42;83.50
73624;BME280;61921;53.226;-1.296;2022-07-24T04:33:15;100134.54;;;18.41;83.57
73624;BME280;61921;53.226;-1.296;2022-07-24T04:35:41;100131.02;;;18.31;84.17
73624;BME280;61921;53.226;-1.296;2022-07-24T04:38:06;100135.31;;;18.31;83.83
73624;BME280;61921;53.226;-1.296;2022-07-24T04:40:32;100135.23;;;18.43;83.92
73624;BME280;61921;53.226;-1.296;2022-07-24T04:42:56;100131.02;;;18.37;83.55
73624;BME280;61921;53.226;-1.296;2022-07-24T04:45:22;100130.59;;;18.36;83.99
73624;BME280;61921;53.226;-1.296;2022-07-24T04:47:47;100126.92;;;18.35;83.33
73624;BME280;61921;53.226;-1.296;2022-07-24T04:50:13;100120.88;;;18.41;83.54
73624;BME280;61921;53.226;-1.296;2022-07-24T04:52:38;100125.31;;;18.45;83.81
73624;BME280;61921;53.226;-1.296;2022-07-24T04:55:05;100128.91;;;18.38;83.79
73624;BME280;61921;53.226;-1.296;2022-07-24T04:57:29;100125.81;;;18.41;83.48
73624;BME280;61921;53.226;-1.296;2022-07-24T04:59:54;100119.58;;;18.63;82.91
73624;BME280;61921;53.226;-1.296;2022-07-24T05:02:19;100119.90;;;18.68;82.22
73624;BME280;61921;53.226;-1.296;2022-07-24T05:04:44;100123.04;;;18.74;82.08
73624;BME280;61921;53.226;-1.296;2022-07-24T05:07:10;100122.68;;;18.56;83.09
73624;BME280;61921;53.226;-1.296;2022-07-24T05:09:35;100123.95;;;18.66;82.59
73624;BME280;61921;53.226;-1.296;2022-07-24T05:12:00;100120.68;;;18.70;82.58
73624;BME280;61921;53.226;-1.296;2022-07-24T05:14:26;100119.81;;;18.63;82.64
73624;BME280;61921;53.226;-1.296;2022-07-24T05:16:51;100117.65;;;18.56;82.75
73624;BME280;61921;53.226;-1.296;2022-07-24T05:19:17;100109.25;;;18.61;82.61
73624;BME280;61921;53.226;-1.296;2022-07-24T05:21:42;100105.12;;;18.63;83.04
73624;BME280;61921;53.226;-1.296;2022-07-24T05:24:08;100103.14;;;18.65;82.37
73624;BME280;61921;53.226;-1.296;2022-07-24T05:26:33;100100.51;;;18.66;83.22
73624;BME280;61921;53.226;-1.296;2022-07-24T05:28:58;100103.63;;;18.74;82.54
73624;BME280;61921;53.226;-1.296;2022-07-24T05:31:23;100116.24;;;18.72;82.75
73624;BME280;61921;53.226;-1.296;2022-07-24T05:33:48;100115.80;;;18.71;82.98
73624;BME280;61921;53.226;-1.296;2022-07-24T05:36:14;100095.10;;;18.71;82.96
73624;BME280;61921;53.226;-1.296;2022-07-24T05:38:40;100106.33;;;18.51;83.48
73624;BME280;61921;53.226;-1.296;2022-07-24T05:41:06;100114.13;;;18.51;83.57
73624;BME280;61921;53.226;-1.296;2022-07-24T05:43:31;100118.32;;;18.65;83.17
73624;BME280;61921;53.226;-1.296;2022-07-24T05:45:56;100120.08;;;18.58;83.29
73624;BME280;61921;53.226;-1.296;2022-07-24T05:48:21;100120.50;;;18.54;83.24
73624;BME280;61921;53.226;-1.296;2022-07-24T05:50:46;100122.32;;;18.61;83.12
73624;BME280;61921;53.226;-1.296;2022-07-24T05:53:11;100118.53;;;18.67;82.62
73624;BME280;61921;53.226;-1.296;2022-07-24T05:55:37;100118.84;;;18.64;82.92
73624;BME280;61921;53.226;-1.296;2022-07-24T05:58:02;100117.19;;;18.63;83.01
73624;BME280;61921;53.226;-1.296;2022-07-24T06:00:28;100127.83;;;18.65;83.50
73624;BME280;61921;53.226;-1.296;2022-07-24T06:02:53;100125.85;;;18.50;83.33
73624;BME280;61921;53.226;-1.296;2022-07-24T06:05:19;100124.78;;;18.60;83.38
73624;BME280;61921;53.226;-1.296;2022-07-24T06:07:44;100123.86;;;18.46;83.84
73624;BME280;61921;53.226;-1.296;2022-07-24T06:10:09;100130.82;;;18.58;83.98
73624;BME280;61921;53.226;-1.296;2022-07-24T06:12:34;100130.13;;;18.69;83.56
73624;BME280;61921;53.226;-1.296;2022-07-24T06:14:59;100128.46;;;18.73;83.51
73624;BME280;61921;53.226;-1.296;2022-07-24T06:17:25;100120.25;;;18.77;83.33
73624;BME280;61921;53.226;-1.296;2022-07-24T06:19:51;100109.30;;;18.88;83.28
73624;BME280;61921;53.226;-1.296;2022-07-24T06:22:16;100106.40;;;18.86;82.78
73624;BME280;61921;53.226;-1.296;2022-07-24T06:24:41;100107.78;;;18.98;82.83
73624;BME280;61921;53.226;-1.296;2022-07-24T06:27:06;100100.04;;;19.10;82.14
73624;BME280;61921;53.226;-1.296;2022-07-24T06:29:32;100105.00;;;19.05;81.86
73624;BME280;61921;53.226;-1.296;2022-07-24T06:31:57;100102.98;;;19.01;82.69
73624;BME280;61921;53.226;-1.296;2022-07-24T06:34:23;100104.72;;;19.01;82.10
73624;BME280;61921;53.226;-1.296;2022-07-24T06:36:48;100100.75;;;19.14;82.37
73624;BME280;61921;53.226;-1.296;2022-07-24T06:39:13;100100.01;;;19.16;81.74
73624;BME280;61921;53.226;-1.296;2022-07-24T06:41:39;100099.66;;;19.05;82.71
73624;BME280;61921;53.226;-1.296;2022-07-24T06:44:05;100102.19;;;19.12;82.12
73624;BME280;61921;53.226;-1.296;2022-07-24T06:46:30;100107.78;;;18.92;82.78
73624;BME280;61921;53.226;-1.296;2022-07-24T06:48:55;100094.04;;;18.90;83.51
73624;BME280;61921;53.226;-1.296;2022-07-24T06:51:20;100092.77;;;18.88;83.07
73624;BME280;61921;53.226;-1.296;2022-07-24T06:53:46;100093.21;;;18.97;83.21
73624;BME280;61921;53.226;-1.296;2022-07-24T06:56:11;100099.03;;;19.04;82.84
73624;BME280;61921;53.226;-1.296;2022-07-24T06:58:36;100099.60;;;19.20;82.76
73624;BME280;61921;53.226;-1.296;2022-07-24T07:01:02;100098.35;;;19.24;82.37
73624;BME280;61921;53.226;-1.296;2022-07-24T07:03:27;100094.71;;;19.21;81.87
73624;BME280;61921;53.226;-1.296;2022-07-24T07:05:52;100096.69;;;19.17;81.94
73624;BME280;61921;53.226;-1.296;2022-07-24T07:08:17;100101.30;;;19.20;82.39
73624;BME280;61921;53.226;-1.296;2022-07-24T07:10:43;100102.87;;;19.29;81.43
73624;BME280;61921;53.226;-1.296;2022-07-24T07:13:08;100104.29;;;19.56;80.99
73624;BME280;61921;53.226;-1.296;2022-07-24T07:15:33;100098.12;;;19.64;80.49
73624;BME280;61921;53.226;-1.296;2022-07-24T07:17:58;100099.59;;;19.76;80.64
73624;BME280;61921;53.226;-1.296;2022-07-24T07:20:23;100101.08;;;19.72;80.25
73624;BME280;61921;53.226;-1.296;2022-07-24T07:22:48;100096.29;;;19.73;79.81
73624;BME280;61921;53.226;-1.296;2022-07-24T07:25:14;100096.60;;;19.81;80.00
73624;BME280;61921;53.226;-1.296;2022-07-24T07:27:39;100092.01;;;19.88;80.01
73624;BME280;61921;53.226;-1.296;2022-07-24T07:30:06;100084.22;;;19.97;79.32
73624;BME280;61921;53.226;-1.296;2022-07-24T07:32:29;100092.30;;;19.85;79.64
73624;BME280;61921;53.226;-1.296;2022-07-24T07:34:54;100091.55;;;19.78;80.11
73624;BME280;61921;53.226;-1.296;2022-07-24T07:37:20;100095.67;;;19.87;79.72
73624;BME280;61921;53.226;-1.296;2022-07-24T07:39:45;100095.58;;;19.84;79.85
73624;BME280;61921;53.226;-1.296;2022-07-24T07:42:10;100097.09;;;19.97;79.01
73624;BME280;61921;53.226;-1.296;2022-07-24T07:44:35;100098.14;;;20.04;79.68
73624;BME280;61921;53.226;-1.296;2022-07-24T07:47:00;100100.85;;;19.96;79.40
73624;BME280;61921;53.226;-1.296;2022-07-24T07:49:25;100099.46;;;20.03;79.02
73624;BME280;61921;53.226;-1.296;2022-07-24T07:51:50;100098.46;;;19.97;79.48
73624;BME280;61921;53.226;-1.296;2022-07-24T07:54:15;100098.86;;;19.92;80.09
73624;BME280;61921;53.226;-1.296;2022-07-24T07:56:41;100098.71;;;19.89;79.48
73624;BME280;61921;53.226;-1.296;2022-07-24T07:59:06;100103.00;;;19.86;79.75
73624;BME280;61921;53.226;-1.296;2022-07-24T08:01:31;100101.22;;;19.97;79.86
73624;BME280;61921;53.226;-1.296;2022-07-24T08:03:56;100093.32;;;20.04;79.08
73624;BME280;61921;53.226;-1.296;2022-07-24T08:06:21;100090.39;;;20.16;78.97
73624;BME280;61921;53.226;-1.296;2022-07-24T08:08:47;100089.29;;;20.10;79.79
73624;BME280;61921;53.226;-1.296;2022-07-24T08:11:12;100090.63;;;20.05;79.57
73624;BME280;61921;53.226;-1.296;2022-07-24T08:13:37;100089.66;;;20.08;80.02
73624;BME280;61921;53.226;-1.296;2022-07-24T08:16:02;100084.05;;;20.19;79.63
73624;BME280;61921;53.226;-1.296;2022-07-24T08:18:27;100090.33;;;20.28;79.08
73624;BME280;61921;53.226;-1.296;2022-07-24T08:20:53;100082.21;;;20.48;78.85
73624;BME280;61921;53.226;-1.296;2022-07-24T08:23:18;100082.87;;;20.62;78.13
73624;BME280;61921;53.226;-1.296;2022-07-24T08:25:43;100085.45;;;20.65;78.49
73624;BME280;61921;53.226;-1.296;2022-07-24T08:28:09;100086.09;;;20.64;77.69
73624;BME280;61921;53.226;-1.296;2022-07-24T08:30:34;100090.13;;;20.71;77.81
73624;BME280;61921;53.226;-1.296;2022-07-24T08:32:59;100086.05;;;20.95;76.55
73624;BME280;61921;53.226;-1.296;2022-07-24T08:35:25;100094.36;;;21.18;76.32
73624;BME280;61921;53.226;-1.296;2022-07-24T08:37:50;100091.11;;;21.21;76.33
73624;BME280;61921;53.226;-1.296;2022-07-24T08:40:15;100086.61;;;21.29;75.50
73624;BME280;61921;53.226;-1.296;2022-07-24T08:42:40;100080.59;;;21.39;74.52
73624;BME280;61921;53.226;-1.296;2022-07-24T08:45:07;100083.54;;;21.44;75.05
73624;BME280;61921;53.226;-1.296;2022-07-24T08:47:30;100086.80;;;21.63;74.13
73624;BME280;61921;53.226;-1.296;2022-07-24T08:49:58;100083.48;;;21.41;74.61
73624;BME280;61921;53.226;-1.296;2022-07-24T08:52:22;100085.16;;;21.62;74.01
73624;BME280;61921;53.226;-1.296;2022-07-24T08:54:45;100086.30;;;21.69;73.72
73624;BME280;61921;53.226;-1.296;2022-07-24T08:57:10;100087.62;;;21.61;75.06
73624;BME280;61921;53.226;-1.296;2022-07-24T08:59:35;100085.07;;;21.85;73.49
73624;BME280;61921;53.226;-1.296;2022-07-24T09:02:00;100078.12;;;21.76;73.57
73624;BME280;61921;53.226;-1.296;2022-07-24T09:04:33;100074.16;;;22.02;72.71
73624;BME280;61921;53.226;-1.296;2022-07-24T09:06:56;100075.84;;;22.05;72.69
73624;BME280;61921;53.226;-1.296;2022-07-24T09:09:21;100077.66;;;21.91;72.46
73624;BME280;61921;53.226;-1.296;2022-07-24T09:11:41;100079.72;;;22.03;72.78
73624;BME280;61921;53.226;-1.296;2022-07-24T09:14:06;100067.37;;;22.53;70.90
73624;BME280;61921;53.226;-1.296;2022-07-24T09:16:33;100071.71;;;22.67;71.36
73624;BME280;61921;53.226;-1.296;2022-07-24T09:19:03;100063.61;;;23.03;70.07
73624;BME280;61921;53.226;-1.296;2022-07-24T09:21:21;100054.80;;;23.37;68.88
73624;BME280;61921;53.226;-1.296;2022-07-24T09:23:46;100053.43;;;23.34;68.50
73624;BME280;61921;53.226;-1.296;2022-07-24T09:26:11;100064.13;;;23.19;69.11
73624;BME280;61921;53.226;-1.296;2022-07-24T09:28:48;100060.59;;;22.92;69.02
73624;BME280;61921;53.226;-1.296;2022-07-24T09:31:01;100060.34;;;23.08;69.63
73624;BME280;61921;53.226;-1.296;2022-07-24T09:33:26;100054.57;;;23.02;69.53
73624;BME280;61921;53.226;-1.296;2022-07-24T09:35:52;100055.13;;;23.06;69.20
73624;BME280;61921;53.226;-1.296;2022-07-24T09:38:18;100059.33;;;23.26;68.94
73624;BME280;61921;53.226;-1.296;2022-07-24T09:40:43;100063.64;;;23.25;68.06
73624;BME280;61921;53.226;-1.296;2022-07-24T09:43:15;100059.55;;;23.30;67.82
73624;BME280;61921;53.226;-1.296;2022-07-24T09:45:49;100063.30;;;23.07;68.47
73624;BME280;61921;53.226;-1.296;2022-07-24T09:47:58;100063.06;;;22.90;69.16
73624;BME280;61921;53.226;-1.296;2022-07-24T09:50:23;100059.50;;;22.70;69.74
73624;BME280;61921;53.226;-1.296;2022-07-24T09:52:48;100061.45;;;22.78;69.80
73624;BME280;61921;53.226;-1.296;2022-07-24T09:55:21;100059.49;;;22.68;69.70
73624;BME280;61921;53.226;-1.296;2022-07-24T09:57:40;100070.88;;;22.78;70.09
73624;BME280;61921;53.226;-1.296;2022-07-24T10:00:06;100064.52;;;22.66;69.92
73624;BME280;61921;53.226;-1.296;2022-07-24T10:02:31;100068.27;;;22.64;69.82
73624;BME280;61921;53.226;-1.296;2022-07-24T10:04:56;100066.51;;;22.53;70.50
73624;BME280;61921;53.226;-1.296;2022-07-24T10:07:22;100070.66;;;22.53;70.10
73624;BME280;61921;53.226;-1.296;2022-07-24T10:09:47;100062.54;;;22.60;70.30
73624;BME280;61921;53.226;-1.296;2022-07-24T10:12:12;100060.17;;;22.81;70.26
73624;BME280;61921;53.226;-1.296;2022-07-24T10:14:35;100058.42;;;22.85;69.14
73624;BME280;61921;53.226;-1.296;2022-07-24T10:17:05;100068.69;;;23.09;69.00
73624;BME280;61921;53.226;-1.296;2022-07-24T10:19:31;100073.59;;;23.11;67.50
73624;BME280;61921;53.226;-1.296;2022-07-24T10:21:53;100068.62;;;23.09;68.07
73624;BME280;61921;53.226;-1.296;2022-07-24T10:26:42;100064.78;;;23.00;68.24
73624;BME280;61921;53.226;-1.296;2022-07-24T10:29:07;100061.86;;;22.76;68.12
73624;BME280;61921;53.226;-1.296;2022-07-24T10:31:30;100056.34;;;22.93;68.22
73624;BME280;61921;53.226;-1.296;2022-07-24T10:33:56;100058.22;;;23.02;67.07
73624;BME280;61921;53.226;-1.296;2022-07-24T10:36:27;100054.69;;;22.93;67.63
73624;BME280;61921;53.226;-1.296;2022-07-24T10:38:55;100050.21;;;22.75;67.59
73624;BME280;61921;53.226;-1.296;2022-07-24T10:41:20;100052.69;;;22.65;68.57
73624;BME280;61921;53.226;-1.296;2022-07-24T10:43:37;100051.35;;;22.95;68.23
73624;BME280;61921;53.226;-1.296;2022-07-24T10:46:10;100051.44;;;23.20;67.67
73624;BME280;61921;53.226;-1.296;2022-07-24T10:48:29;100048.96;;;23.01;67.74
73624;BME280;61921;53.226;-1.296;2022-07-24T10:51:00;100038.03;;;23.27;66.79
73624;BME280;61921;53.226;-1.296;2022-07-24T10:53:22;100047.79;;;23.45;65.95
73624;BME280;61921;53.226;-1.296;2022-07-24T10:55:43;100046.44;;;23.50;66.14
73624;BME280;61921;53.226;-1.296;2022-07-24T10:58:13;100043.53;;;24.02;64.33
73624;BME280;61921;53.226;-1.296;2022-07-24T11:00:38;100035.53;;;24.82;62.45
73624;BME280;61921;53.226;-1.296;2022-07-24T11:03:01;100026.18;;;25.22;61.69
73624;BME280;61921;53.226;-1.296;2022-07-24T11:05:27;100022.15;;;25.15;60.89
73624;BME280;61921;53.226;-1.296;2022-07-24T11:10:16;100026.31;;;25.29;60.11
73624;BME280;61921;53.226;-1.296;2022-07-24T11:12:42;100034.15;;;25.55;59.68
73624;BME280;61921;53.226;-1.296;2022-07-24T11:15:07;100026.15;;;25.76;58.66
73624;BME280;61921;53.226;-1.296;2022-07-24T11:17:37;100026.30;;;25.94;58.43
73624;BME280;61921;53.226;-1.296;2022-07-24T11:20:00;100025.94;;;25.39;59.13
73624;BME280;61921;53.226;-1.296;2022-07-24T11:25:05;100017.20;;;25.49;60.01
73624;BME280;61921;53.226;-1.296;2022-07-24T11:27:17;100021.23;;;25.16;60.27
73624;BME280;61921;53.226;-1.296;2022-07-24T11:29:42;100017.21;;;24.63;60.53
73624;BME280;61921;53.226;-1.296;2022-07-24T11:32:10;100011.33;;;24.52;61.77
73624;BME280;61921;53.226;-1.296;2022-07-24T11:34:35;100004.64;;;24.80;60.36
73624;BME280;61921;53.226;-1.296;2022-07-24T11:36:59;99996.33;;;25.73;59.33
73624;BME280;61921;53.226;-1.296;2022-07-24T11:39:27;99989.86;;;25.93;57.84
73624;BME280;61921;53.226;-1.296;2022-07-24T11:41:52;99991.24;;;26.01;57.04
73624;BME280;61921;53.226;-1.296;2022-07-24T11:44:21;99991.96;;;25.44;57.44
73624;BME280;61921;53.226;-1.296;2022-07-24T11:46:42;99983.03;;;25.63;58.04
73624;BME280;61921;53.226;-1.296;2022-07-24T11:49:08;99978.56;;;25.71;57.45
73624;BME280;61921;53.226;-1.296;2022-07-24T11:51:40;99980.34;;;25.77;57.76
73624;BME280;61921;53.226;-1.296;2022-07-24T11:53:58;99981.24;;;25.37;59.52
73624;BME280;61921;53.226;-1.296;2022-07-24T11:56:24;99982.64;;;25.14;59.91
73624;BME280;61921;53.226;-1.296;2022-07-24T11:58:50;99978.04;;;25.76;58.92
73624;BME280;61921;53.226;-1.296;2022-07-24T12:01:20;99970.72;;;25.78;58.23
73624;BME280;61921;53.226;-1.296;2022-07-24T12:03:49;99976.45;;;26.08;57.67
73624;BME280;61921;53.226;-1.296;2022-07-24T12:06:11;99971.05;;;26.13;57.39
73624;BME280;61921;53.226;-1.296;2022-07-24T12:08:33;99974.93;;;26.00;57.52
73624;BME280;61921;53.226;-1.296;2022-07-24T12:10:58;99972.53;;;25.44;59.10
73624;BME280;61921;53.226;-1.296;2022-07-24T12:13:23;99966.84;;;25.45;59.26
73624;BME280;61921;53.226;-1.296;2022-07-24T12:15:48;99965.33;;;25.43;58.85
73624;BME280;61921;53.226;-1.296;2022-07-24T12:18:13;99966.77;;;25.41;59.78
73624;BME280;61921;53.226;-1.296;2022-07-24T12:20:41;99958.71;;;25.34;60.25
73624;BME280;61921;53.226;-1.296;2022-07-24T12:23:06;99963.44;;;24.86;61.19
73624;BME280;61921;53.226;-1.296;2022-07-24T12:25:31;99966.72;;;24.90;61.56
73624;BME280;61921;53.226;-1.296;2022-07-24T12:28:01;99961.65;;;25.12;61.16
73624;BME280;61921;53.226;-1.296;2022-07-24T12:30:23;99962.02;;;25.05;61.42
73624;BME280;61921;53.226;-1.296;2022-07-24T12:32:55;99960.05;;;24.70;62.18
73624;BME280;61921;53.226;-1.296;2022-07-24T12:35:12;99959.62;;;25.06;61.21
73624;BME280;61921;53.226;-1.296;2022-07-24T12:37:37;99958.54;;;24.93;61.21